Time;durP1;ratioP1;P1;durP2;ratioP2;P2;SDS_P1;SDS_P2;PMS_P1;PMS_P2;Temp;Humidity;BMP_temperature;BMP_pressure;BME280_temperature;BME280_humidity;BME280_pressure;Samples;Min_cycle;Max_cycle;Signal;HPM_P1;HPM_P2
2023/02/15 00:01:43;;;;;;;13.23;11.63;;;2.60;99.90;;;;;;5053858;28;20245;-65
2023/02/15 00:04:09;;;;;;;15.27;12.23;;;2.50;99.90;;;;;;5054700;28;20171;-64
2023/02/15 00:06:35;;;;;;;18.00;12.80;;;2.50;99.90;;;;;;5054597;28;20190;-65
2023/02/15 00:09:02;;;;;;;18.27;12.30;;;2.50;99.90;;;;;;5054704;28;20190;-65
2023/02/15 00:11:40;;;;;;;13.50;11.63;;;2.50;99.90;;;;;;5054360;28;20170;-65
2023/02/15 00:14:07;;;;;;;22.37;12.80;;;2.40;99.90;;;;;;5054628;28;20578;-65
2023/02/15 00:16:33;;;;;;;18.30;13.83;;;2.40;99.90;;;;;;5054378;28;20207;-65
2023/02/15 00:19:01;;;;;;;18.13;14.63;;;2.40;99.90;;;;;;5054365;28;20186;-65
2023/02/15 00:21:28;;;;;;;13.93;12.50;;;2.40;99.90;;;;;;5054193;28;20281;-65
2023/02/15 00:23:54;;;;;;;16.30;13.77;;;2.30;99.90;;;;;;5054411;28;20369;-65
2023/02/15 00:26:19;;;;;;;16.57;12.87;;;2.30;99.90;;;;;;5054491;28;20198;-65
2023/02/15 00:28:45;;;;;;;17.40;12.97;;;2.30;99.90;;;;;;5054383;28;20624;-65
2023/02/15 00:31:12;;;;;;;19.03;12.20;;;2.30;99.90;;;;;;5053900;28;20167;-65
2023/02/15 00:33:39;;;;;;;18.10;12.80;;;2.30;99.90;;;;;;5054110;28;20170;-65
2023/02/15 00:36:08;;;;;;;15.17;12.63;;;2.30;99.90;;;;;;5053907;28;20191;-65
2023/02/15 00:38:34;;;;;;;13.20;11.87;;;2.30;99.90;;;;;;5054172;28;20163;-65
2023/02/15 00:41:02;;;;;;;17.00;12.80;;;2.20;99.90;;;;;;5053670;28;20163;-65
2023/02/15 00:43:29;;;;;;;17.47;12.47;;;2.20;99.90;;;;;;5053871;28;20612;-65
2023/02/15 00:45:55;;;;;;;18.23;12.27;;;2.20;99.90;;;;;;5053466;28;20217;-64
2023/02/15 00:48:21;;;;;;;15.20;13.60;;;2.20;99.90;;;;;;5053973;28;20250;-65
2023/02/15 00:50:49;;;;;;;17.63;15.03;;;2.20;99.90;;;;;;5053551;28;20260;-65
2023/02/15 00:53:15;;;;;;;18.13;14.37;;;2.10;99.90;;;;;;5053889;28;20183;-65
2023/02/15 00:55:41;;;;;;;16.53;14.87;;;2.10;99.90;;;;;;5053611;28;20884;-65
2023/02/15 00:58:07;;;;;;;23.33;13.53;;;2.10;99.90;;;;;;5053707;28;20198;-65
2023/02/15 01:00:33;;;;;;;20.23;13.87;;;2.10;99.90;;;;;;5052792;28;20179;-65
2023/02/15 01:02:59;;;;;;;18.07;14.20;;;2.10;99.90;;;;;;5053543;28;20268;-65
2023/02/15 01:05:24;;;;;;;15.43;12.43;;;2.10;99.90;;;;;;5053675;28;20550;-65
2023/02/15 01:07:50;;;;;;;17.53;14.37;;;2.10;99.90;;;;;;5053732;28;20262;-65
2023/02/15 01:10:16;;;;;;;18.17;13.30;;;2.00;99.90;;;;;;5053251;28;20648;-65
2023/02/15 01:12:42;;;;;;;23.40;14.53;;;2.00;99.90;;;;;;5053338;28;20182;-65
2023/02/15 01:15:08;;;;;;;17.07;12.73;;;2.00;99.90;;;;;;5053268;28;20680;-65
2023/02/15 01:17:33;;;;;;;17.07;12.47;;;2.00;99.90;;;;;;5053417;28;20667;-65
2023/02/15 01:19:59;;;;;;;16.70;12.80;;;2.00;99.90;;;;;;5052745;28;20175;-65
2023/02/15 01:22:25;;;;;;;15.03;13.13;;;2.00;99.90;;;;;;5053158;28;20695;-65
2023/02/15 01:24:50;;;;;;;22.10;14.00;;;2.00;99.90;;;;;;5053064;28;20273;-65
2023/02/15 01:27:16;;;;;;;18.90;13.20;;;1.90;99.90;;;;;;5053247;28;20231;-64
2023/02/15 01:29:42;;;;;;;17.07;13.40;;;1.90;99.90;;;;;;5052709;28;20190;-65
2023/02/15 01:32:07;;;;;;;14.90;13.00;;;1.90;99.90;;;;;;5053145;28;20179;-65
2023/02/15 01:34:33;;;;;;;17.93;12.70;;;1.90;99.90;;;;;;5053019;28;20195;-65
2023/02/15 01:36:59;;;;;;;18.70;13.00;;;1.90;99.90;;;;;;5052945;28;20710;-65
2023/02/15 01:39:24;;;;;;;20.60;13.53;;;1.90;99.90;;;;;;5052922;28;20183;-65
2023/02/15 01:41:50;;;;;;;13.07;11.77;;;1.90;99.90;;;;;;5052801;28;20234;-64
2023/02/15 01:44:47;;;;;;;14.53;13.10;;;1.90;99.90;;;;;;5053650;28;20521;-65
2023/02/15 01:47:26;;;;;;;14.70;13.23;;;1.90;99.90;;;;;;5053402;28;20179;-64
2023/02/15 01:50:21;;;;;;;13.87;12.50;;;1.90;99.90;;;;;;5052389;28;20641;-64
2023/02/15 01:52:51;;;;;;;14.57;12.87;;;1.90;99.90;;;;;;5041654;28;20191;-64
2023/02/15 01:55:17;;;;;;;16.63;12.77;;;1.80;99.90;;;;;;5052578;28;20213;-64
2023/02/15 01:57:45;;;;;;;15.50;12.57;;;1.80;99.90;;;;;;5052367;28;20186;-64
2023/02/15 02:00:12;;;;;;;18.17;13.93;;;1.80;99.90;;;;;;5051506;28;20229;-64
2023/02/15 02:02:38;;;;;;;16.03;13.27;;;1.80;99.90;;;;;;5052164;28;20229;-64
2023/02/15 02:05:06;;;;;;;19.67;16.03;;;1.80;99.90;;;;;;5052318;28;20199;-64
2023/02/15 02:07:36;;;;;;;15.63;13.97;;;1.80;99.90;;;;;;5052512;28;20175;-64
2023/02/15 02:10:03;;;;;;;15.73;14.17;;;1.80;99.90;;;;;;5052386;28;20175;-64
2023/02/15 02:12:29;;;;;;;18.90;13.27;;;1.70;99.90;;;;;;5052287;28;20691;-64
2023/02/15 02:14:55;;;;;;;21.20;15.57;;;1.70;99.90;;;;;;5052086;28;20205;-64
2023/02/15 02:17:53;;;;;;;16.03;13.27;;;1.70;99.90;;;;;;5051828;28;20552;-64
2023/02/15 02:21:17;;;;;;;18.63;14.30;;;1.70;99.90;;;;;;5051962;28;20182;-64
2023/02/15 02:24:09;;;;;;;16.17;12.40;;;1.70;99.90;;;;;;5000228;28;20404;-65
2023/02/15 02:26:47;;;;;;;15.43;12.57;;;1.70;99.90;;;;;;5021397;28;20256;-64
2023/02/15 02:29:12;;;;;;;14.03;12.73;;;1.70;99.90;;;;;;5051999;28;20194;-64
2023/02/15 02:31:52;;;;;;;12.97;11.67;;;1.70;99.90;;;;;;5052169;28;20177;-64
2023/02/15 02:34:26;;;;;;;14.73;11.87;;;1.70;99.90;;;;;;5052065;28;20253;-64
2023/02/15 02:37:07;;;;;;;13.87;12.47;;;1.60;99.90;;;;;;5051779;28;20185;-64
2023/02/15 02:39:57;;;;;;;15.13;11.13;;;1.60;99.90;;;;;;5051684;28;20253;-64
2023/02/15 02:42:37;;;;;;;12.83;11.50;;;1.60;99.90;;;;;;5051779;28;20549;-64
2023/02/15 02:45:16;;;;;;;18.50;13.20;;;1.60;99.90;;;;;;5051635;28;20202;-64
2023/02/15 02:47:48;;;;;;;14.13;12.27;;;1.60;99.90;;;;;;5051691;28;20174;-64
2023/02/15 02:50:17;;;;;;;12.50;11.10;;;1.50;99.90;;;;;;5051459;28;20163;-64
2023/02/15 02:52:51;;;;;;;17.10;11.77;;;1.50;99.90;;;;;;5051553;28;20175;-64
2023/02/15 02:55:25;;;;;;;12.80;11.53;;;1.50;99.90;;;;;;5051561;28;20190;-64
2023/02/15 02:57:57;;;;;;;19.13;11.23;;;1.50;99.90;;;;;;5051255;28;20181;-64
2023/02/15 03:00:26;;;;;;;15.50;13.13;;;1.50;99.90;;;;;;5050267;28;20190;-64
2023/02/15 03:02:59;;;;;;;15.33;13.83;;;1.50;99.90;;;;;;5051303;28;20220;-64
2023/02/15 03:05:27;;;;;;;14.57;11.20;;;1.50;99.90;;;;;;5051569;28;20280;-65
2023/02/15 03:07:56;;;;;;;14.83;11.40;;;1.50;99.90;;;;;;5051302;28;20264;-65
2023/02/15 03:10:24;;;;;;;14.40;12.37;;;1.50;99.90;;;;;;5052834;28;20202;-66
2023/02/15 03:12:51;;;;;;;15.87;13.13;;;1.50;99.90;;;;;;5053321;28;20640;-68
2023/02/15 03:16:25;;;;;;;14.50;12.03;;;1.50;99.90;;;;;;5053336;28;20202;-66
2023/02/15 03:18:20;;;;;;;20.47;13.40;;;1.40;99.90;;;;;;5053581;28;20179;-68
2023/02/15 03:20:47;;;;;;;15.40;12.50;;;1.40;99.90;;;;;;5053166;28;20253;-65
2023/02/15 03:23:18;;;;;;;11.17;10.10;;;1.40;99.90;;;;;;5053172;28;20203;-66
2023/02/15 03:26:11;;;;;;;16.40;12.13;;;1.40;99.90;;;;;;5052724;28;20191;-68
2023/02/15 03:28:43;;;;;;;13.53;11.47;;;1.40;99.90;;;;;;5048888;28;20186;-67
2023/02/15 03:31:11;;;;;;;13.30;11.90;;;1.30;99.90;;;;;;5056360;28;20163;-70
2023/02/15 03:33:42;;;;;;;13.97;12.77;;;1.30;99.90;;;;;;5057150;28;20653;-67
2023/02/15 03:36:18;;;;;;;12.63;11.30;;;1.30;99.90;;;;;;5057287;28;20205;-65
2023/02/15 03:39:00;;;;;;;16.73;12.17;;;1.30;99.90;;;;;;5056958;28;20190;-68
2023/02/15 03:41:44;;;;;;;13.40;12.20;;;1.30;99.90;;;;;;5056934;28;20171;-68
2023/02/15 03:44:24;;;;;;;14.00;12.50;;;1.30;99.90;;;;;;5056856;28;20262;-66
2023/02/15 03:47:04;;;;;;;16.47;12.80;;;1.30;99.90;;;;;;5056658;28;20239;-65
2023/02/15 03:49:50;;;;;;;12.20;11.03;;;1.20;99.90;;;;;;5056593;28;20185;-67
2023/02/15 03:52:17;;;;;;;13.53;12.33;;;1.20;99.90;;;;;;5057002;28;20178;-67
2023/02/15 03:54:44;;;;;;;15.03;13.60;;;1.20;99.90;;;;;;5056913;28;20199;-68
2023/02/15 04:03:11;;;;;;;18.17;12.40;;;1.20;99.90;;;;;;5057370;28;20221;-65
2023/02/15 04:05:37;;;;;;;13.23;11.80;;;1.20;99.90;;;;;;5056711;28;20237;-68
2023/02/15 04:08:03;;;;;;;15.03;12.30;;;1.10;99.90;;;;;;5056527;28;20182;-66
2023/02/15 04:13:13;;;;;;;14.90;13.40;;;1.10;99.90;;;;;;5056988;28;20225;-67
2023/02/15 04:26:36;;;;;;;16.67;12.20;;;1.00;99.90;;;;;;5056168;28;20551;-65
2023/02/15 04:29:02;;;;;;;21.37;12.40;;;1.00;99.90;;;;;;5056125;28;20282;-70
2023/02/15 04:31:27;;;;;;;12.07;11.13;;;1.00;99.90;;;;;;5055887;28;20250;-65
2023/02/15 04:33:53;;;;;;;11.50;10.43;;;1.00;99.90;;;;;;5055909;28;20206;-67
2023/02/15 04:36:18;;;;;;;11.87;10.37;;;1.00;99.90;;;;;;5055997;28;20194;-72
2023/02/15 04:38:44;;;;;;;13.77;10.87;;;0.90;99.90;;;;;;5056077;28;20186;-65
2023/02/15 04:41:12;;;;;;;15.03;12.50;;;0.90;99.90;;;;;;5055099;28;20173;-65
2023/02/15 04:43:37;;;;;;;15.73;11.40;;;0.90;99.90;;;;;;5055913;28;20214;-67
2023/02/15 04:46:03;;;;;;;12.70;10.20;;;0.90;99.90;;;;;;5055649;28;20210;-66
2023/02/15 04:48:29;;;;;;;17.10;12.43;;;0.90;99.90;;;;;;5056209;28;20648;-68
2023/02/15 04:50:55;;;;;;;17.90;13.10;;;0.90;99.90;;;;;;5055531;28;20177;-68
2023/02/15 04:53:20;;;;;;;13.77;11.10;;;0.90;99.90;;;;;;5055475;28;20174;-66
2023/02/15 04:55:46;;;;;;;11.97;10.97;;;0.90;99.90;;;;;;5055045;28;20277;-66
2023/02/15 04:58:11;;;;;;;16.33;14.27;;;0.90;99.90;;;;;;5053808;28;20302;-64
2023/02/15 05:00:37;;;;;;;16.00;11.33;;;0.90;99.90;;;;;;5054493;28;20175;-67
2023/02/15 05:03:03;;;;;;;21.33;13.03;;;0.80;99.90;;;;;;5055221;28;20296;-67
2023/02/15 05:05:28;;;;;;;15.07;13.53;;;0.80;99.90;;;;;;5055537;28;20260;-67
2023/02/15 05:07:54;;;;;;;16.03;11.97;;;0.80;99.90;;;;;;5055221;28;20179;-66
2023/02/15 05:10:20;;;;;;;10.93;10.03;;;0.80;99.90;;;;;;5054820;28;20177;-65
2023/02/15 05:12:45;;;;;;;15.57;10.97;;;0.80;99.90;;;;;;5055304;28;20640;-66
2023/02/15 05:15:11;;;;;;;14.30;11.20;;;0.80;99.90;;;;;;5055232;28;20210;-66
2023/02/15 05:17:37;;;;;;;13.07;11.70;;;0.80;99.90;;;;;;5054922;28;20175;-66
2023/02/15 05:20:03;;;;;;;16.30;12.10;;;0.80;99.90;;;;;;5054958;28;20225;-67
2023/02/15 05:22:28;;;;;;;20.60;13.30;;;0.80;99.90;;;;;;5054787;28;20666;-65
2023/02/15 05:30:22;;;;;;;12.47;11.07;;;0.80;99.90;;;;;;5054776;28;20228;-65
2023/02/15 05:32:48;;;;;;;16.63;11.33;;;0.70;99.90;;;;;;5055009;28;20182;-68
2023/02/15 05:35:15;;;;;;;12.00;10.80;;;0.70;99.90;;;;;;5055014;28;20202;-69
2023/02/15 05:37:40;;;;;;;13.30;11.93;;;0.70;99.90;;;;;;5055229;28;20171;-66
2023/02/15 05:40:07;;;;;;;12.10;10.77;;;0.70;99.90;;;;;;5054192;28;20543;-69
2023/02/15 05:42:32;;;;;;;14.63;10.97;;;0.70;99.90;;;;;;5054506;28;20692;-68
2023/02/15 05:44:58;;;;;;;11.67;10.43;;;0.80;99.90;;;;;;5053326;28;20246;-66
2023/02/15 05:47:24;;;;;;;13.33;10.23;;;0.80;99.90;;;;;;5055016;28;20175;-66
2023/02/15 05:49:49;;;;;;;14.30;11.40;;;0.80;99.90;;;;;;5054219;28;20174;-68
2023/02/15 05:52:15;;;;;;;11.77;10.57;;;0.80;99.90;;;;;;5052487;28;20186;-68
2023/02/15 05:54:40;;;;;;;14.37;13.03;;;0.80;99.90;;;;;;5054494;28;20665;-66
2023/02/15 05:57:06;;;;;;;12.50;11.23;;;0.80;99.90;;;;;;5054292;28;20179;-66
2023/02/15 05:59:31;;;;;;;12.97;11.87;;;0.80;99.90;;;;;;5054307;28;20653;-66
2023/02/15 06:01:57;;;;;;;15.10;12.67;;;0.80;99.90;;;;;;5052989;28;20260;-68
2023/02/15 06:04:23;;;;;;;17.73;10.77;;;0.80;99.90;;;;;;5054403;28;20171;-65
2023/02/15 06:06:48;;;;;;;14.10;12.10;;;0.70;99.90;;;;;;5054100;28;20179;-70
2023/02/15 06:09:14;;;;;;;12.83;11.70;;;0.70;99.90;;;;;;5054019;28;20561;-66
2023/02/15 06:11:40;;;;;;;12.63;11.53;;;0.70;99.90;;;;;;5053955;28;20256;-67
2023/02/15 06:14:05;;;;;;;13.57;11.93;;;0.70;99.90;;;;;;5053761;28;20255;-67
2023/02/15 06:16:31;;;;;;;13.77;10.70;;;0.80;99.90;;;;;;5054318;28;20794;-66
2023/02/15 06:18:58;;;;;;;18.27;11.33;;;0.70;99.90;;;;;;5053896;28;20213;-67
2023/02/15 06:21:24;;;;;;;14.90;12.17;;;0.70;99.90;;;;;;5053783;28;20536;-66
2023/02/15 06:23:50;;;;;;;16.67;12.03;;;0.70;99.90;;;;;;5053705;28;20250;-65
2023/02/15 06:26:15;;;;;;;12.47;11.20;;;0.70;99.90;;;;;;5053773;28;20195;-66
2023/02/15 06:28:41;;;;;;;12.97;11.67;;;0.70;99.90;;;;;;5053867;28;20258;-67
2023/02/15 06:31:06;;;;;;;11.53;10.43;;;0.70;99.90;;;;;;5053379;28;20167;-65
2023/02/15 06:33:33;;;;;;;21.20;12.30;;;0.70;99.90;;;;;;5051921;28;20183;-65
2023/02/15 06:35:59;;;;;;;13.57;12.07;;;0.70;99.90;;;;;;5051624;28;20190;-62
2023/02/15 06:38:25;;;;;;;11.40;10.27;;;0.70;99.90;;;;;;5051937;28;20178;-64
2023/02/15 06:40:50;;;;;;;14.97;12.43;;;0.70;99.90;;;;;;5051559;28;20175;-63
2023/02/15 06:43:16;;;;;;;13.53;12.03;;;0.70;99.90;;;;;;5051687;28;20213;-63
2023/02/15 06:45:42;;;;;;;14.40;10.60;;;0.70;99.90;;;;;;5051480;28;20329;-63
2023/02/15 06:48:08;;;;;;;14.23;12.63;;;0.70;99.90;;;;;;5051483;28;20230;-63
2023/02/15 06:50:34;;;;;;;11.93;10.83;;;0.70;99.90;;;;;;5051350;28;20216;-63
2023/02/15 06:52:59;;;;;;;18.13;11.23;;;0.70;99.90;;;;;;5051561;28;20545;-63
2023/02/15 06:55:26;;;;;;;13.37;12.07;;;0.70;99.90;;;;;;5051483;28;20220;-63
2023/02/15 06:57:51;;;;;;;13.60;11.77;;;0.70;99.90;;;;;;5051368;28;20178;-63
2023/02/15 07:00:18;;;;;;;12.00;10.83;;;0.70;99.90;;;;;;5051343;28;20546;-63
2023/02/15 07:02:44;;;;;;;15.13;13.43;;;0.80;99.90;;;;;;5051613;28;20683;-63
2023/02/15 07:05:10;;;;;;;16.60;12.83;;;0.80;99.90;;;;;;5051220;28;20229;-63
2023/02/15 07:07:35;;;;;;;13.03;11.70;;;0.80;99.90;;;;;;5051556;28;20198;-63
2023/02/15 07:10:02;;;;;;;13.67;12.03;;;0.80;99.90;;;;;;5050928;28;20175;-64
2023/02/15 07:12:42;;;;;;;14.70;12.30;;;0.80;99.90;;;;;;5051341;28;20551;-64
2023/02/15 07:15:10;;;;;;;15.60;12.77;;;0.80;99.90;;;;;;5051335;28;20199;-64
2023/02/15 07:17:36;;;;;;;18.30;12.53;;;0.90;99.90;;;;;;5051367;28;20175;-64
2023/02/15 07:20:08;;;;;;;12.93;11.63;;;0.90;99.90;;;;;;5050801;28;20187;-64
2023/02/15 07:22:35;;;;;;;19.33;12.97;;;1.00;99.90;;;;;;5051511;28;20245;-63
2023/02/15 07:25:03;;;;;;;13.47;12.40;;;1.00;99.90;;;;;;5051111;28;20668;-64
2023/02/15 07:27:29;;;;;;;17.70;11.97;;;1.10;99.90;;;;;;5051308;28;20236;-64
2023/02/15 07:29:54;;;;;;;16.03;12.60;;;1.10;99.90;;;;;;5050850;28;20174;-64
2023/02/15 07:32:20;;;;;;;14.53;13.13;;;1.10;99.90;;;;;;5051128;28;20278;-63
2023/02/15 07:34:45;;;;;;;15.80;12.97;;;1.20;99.90;;;;;;5051085;28;20743;-64
2023/02/15 07:37:11;;;;;;;14.77;13.37;;;1.20;99.90;;;;;;5051207;28;20448;-63
2023/02/15 07:39:36;;;;;;;21.07;12.07;;;1.20;99.90;;;;;;5050927;28;20183;-64
2023/02/15 07:42:02;;;;;;;12.87;11.53;;;1.30;99.90;;;;;;5050810;28;20206;-64
2023/02/15 07:44:28;;;;;;;13.00;11.73;;;1.30;99.90;;;;;;5051076;28;20183;-64
2023/02/15 07:46:53;;;;;;;11.57;10.53;;;1.40;99.90;;;;;;5051692;28;20262;-64
2023/02/15 07:49:19;;;;;;;12.10;10.97;;;1.50;99.90;;;;;;5050843;28;20179;-64
2023/02/15 07:51:45;;;;;;;17.40;11.57;;;1.80;99.90;;;;;;5051033;28;20252;-65
2023/02/15 07:54:11;;;;;;;12.53;11.27;;;2.10;99.90;;;;;;5050989;28;20182;-64
2023/02/15 07:56:36;;;;;;;13.13;11.80;;;2.30;99.90;;;;;;5050996;28;20185;-64
2023/02/15 07:59:04;;;;;;;16.73;10.57;;;2.50;99.90;;;;;;5051149;28;20182;-64
2023/02/15 08:01:36;;;;;;;13.30;12.07;;;2.80;99.90;;;;;;5051027;28;20192;-65
2023/02/15 08:04:03;;;;;;;15.60;13.73;;;3.00;99.90;;;;;;5050996;28;20174;-65
2023/02/15 08:06:32;;;;;;;18.37;15.40;;;3.30;99.90;;;;;;5050976;28;20187;-64
2023/02/15 08:08:57;;;;;;;18.70;13.57;;;3.50;99.90;;;;;;5051946;28;20254;-65
2023/02/15 08:11:32;;;;;;;18.37;13.33;;;3.70;99.90;;;;;;5050725;28;20625;-65
2023/02/15 08:14:09;;;;;;;14.10;12.63;;;3.90;99.90;;;;;;5050792;28;20595;-65
2023/02/15 08:16:39;;;;;;;15.17;11.83;;;4.10;99.90;;;;;;5053149;28;20190;-65
2023/02/15 08:19:22;;;;;;;13.23;11.00;;;4.40;99.90;;;;;;5054328;28;20472;-65
2023/02/15 08:21:50;;;;;;;13.53;11.30;;;4.80;99.90;;;;;;5054342;28;20230;-65
2023/02/15 08:24:19;;;;;;;15.20;11.87;;;4.90;99.90;;;;;;5054202;28;20186;-65
2023/02/15 08:26:46;;;;;;;13.03;11.37;;;5.10;99.90;;;;;;5054217;28;20299;-65
2023/02/15 08:29:14;;;;;;;12.53;11.23;;;5.00;99.90;;;;;;5054177;28;20179;-65
2023/02/15 08:31:40;;;;;;;12.80;11.57;;;5.00;99.90;;;;;;5054182;28;20171;-65
2023/02/15 08:34:07;;;;;;;18.90;12.33;;;5.10;99.90;;;;;;5053967;28;20163;-65
2023/02/15 08:36:33;;;;;;;13.53;11.30;;;5.40;99.90;;;;;;5054139;28;20233;-65
2023/02/15 08:39:00;;;;;;;16.30;10.50;;;5.50;99.90;;;;;;5054127;28;20237;-65
2023/02/15 08:41:29;;;;;;;12.77;11.03;;;5.60;99.90;;;;;;5053754;28;20261;-65
2023/02/15 08:43:59;;;;;;;16.43;11.63;;;5.80;99.90;;;;;;5053984;28;20177;-65
2023/02/15 08:46:29;;;;;;;14.93;10.77;;;6.10;99.90;;;;;;5053996;28;20230;-65
2023/02/15 08:48:55;;;;;;;13.30;11.10;;;6.30;99.90;;;;;;5053889;28;20175;-65
2023/02/15 08:51:26;;;;;;;12.33;10.13;;;6.50;99.90;;;;;;5053558;28;20175;-65
2023/02/15 08:53:55;;;;;;;13.70;11.60;;;6.60;99.90;;;;;;5053773;28;20163;-65
2023/02/15 08:56:29;;;;;;;10.90;9.80;;;6.70;99.90;;;;;;5053609;28;20199;-65
2023/02/15 08:58:55;;;;;;;16.27;11.83;;;6.70;99.90;;;;;;5053725;28;20166;-65
2023/02/15 09:01:23;;;;;;;12.37;10.63;;;7.00;99.90;;;;;;5052499;28;20179;-65
2023/02/15 09:03:54;;;;;;;12.30;11.20;;;7.20;99.90;;;;;;5053495;28;20260;-65
2023/02/15 09:06:20;;;;;;;12.73;9.50;;;7.30;99.90;;;;;;5053537;28;20309;-64
2023/02/15 09:08:46;;;;;;;14.37;10.90;;;7.40;99.90;;;;;;5053501;28;20174;-65
2023/02/15 09:11:26;;;;;;;16.23;11.17;;;7.50;99.90;;;;;;5053270;28;20179;-65
2023/02/15 09:14:20;;;;;;;11.97;10.47;;;7.60;99.90;;;;;;5053455;28;20171;-65
2023/02/15 09:16:48;;;;;;;9.40;8.50;;;7.80;99.90;;;;;;5050410;28;20187;-65
2023/02/15 09:19:15;;;;;;;11.93;9.30;;;8.00;99.90;;;;;;5053149;28;20175;-65
2023/02/15 09:21:41;;;;;;;11.93;10.60;;;8.10;99.90;;;;;;5053555;28;20197;-65
2023/02/15 09:24:09;;;;;;;14.23;10.33;;;8.10;99.90;;;;;;5053599;28;20549;-65
2023/02/15 09:26:40;;;;;;;13.70;9.70;;;8.10;99.90;;;;;;5053009;28;20195;-65
2023/02/15 09:29:05;;;;;;;12.57;9.37;;;8.30;99.90;;;;;;5052479;28;20167;-65
2023/02/15 09:31:33;;;;;;;9.73;8.73;;;8.40;99.90;;;;;;5052989;28;20175;-65
2023/02/15 09:34:02;;;;;;;9.87;8.63;;;8.70;99.90;;;;;;5052933;28;20167;-65
2023/02/15 09:36:34;;;;;;;10.17;8.57;;;9.00;99.90;;;;;;5053010;28;20626;-65
2023/02/15 09:39:18;;;;;;;11.90;8.10;;;9.30;99.90;;;;;;5052916;28;20179;-65
2023/02/15 09:42:11;;;;;;;10.30;9.10;;;9.50;99.90;;;;;;5052678;28;20177;-65
2023/02/15 09:44:55;;;;;;;9.77;7.70;;;9.80;99.90;;;;;;5052925;28;20195;-65
2023/02/15 09:47:23;;;;;;;9.60;8.70;;;9.60;99.90;;;;;;5053026;28;20190;-65
2023/02/15 09:50:26;;;;;;;10.47;9.43;;;9.50;99.90;;;;;;5052364;28;20186;-64
2023/02/15 09:53:30;;;;;;;9.80;8.40;;;9.40;99.90;;;;;;5052879;28;20258;-65
2023/02/15 09:56:06;;;;;;;10.53;9.43;;;9.50;99.90;;;;;;5052540;28;20218;-65
2023/02/15 09:58:46;;;;;;;9.13;8.23;;;9.60;99.90;;;;;;5052843;28;20210;-65
2023/02/15 10:01:25;;;;;;;14.33;8.90;;;9.60;99.90;;;;;;5051895;28;20660;-65
2023/02/15 10:04:02;;;;;;;9.37;8.37;;;9.60;99.90;;;;;;5052447;28;20210;-65
2023/02/15 10:07:06;;;;;;;8.53;7.80;;;9.60;99.90;;;;;;5052754;28;20186;-65
2023/02/15 10:09:37;;;;;;;8.80;8.00;;;9.80;99.90;;;;;;5042929;28;20195;-65
2023/02/15 10:12:17;;;;;;;9.37;8.47;;;10.00;99.90;;;;;;5052502;28;20262;-65
2023/02/15 10:15:11;;;;;;;9.63;8.73;;;10.10;99.90;;;;;;5052748;28;20209;-65
2023/02/15 10:17:48;;;;;;;11.73;8.90;;;10.10;99.90;;;;;;5052457;28;20183;-65
2023/02/15 10:20:20;;;;;;;10.70;9.53;;;10.10;99.90;;;;;;5052072;28;20182;-65
2023/02/15 10:23:10;;;;;;;11.30;8.70;;;10.10;99.90;;;;;;5052105;28;20200;-65
2023/02/15 10:26:22;;;;;;;9.63;8.70;;;10.10;99.90;;;;;;5052320;28;20197;-65
2023/02/15 10:28:57;;;;;;;10.40;9.03;;;10.30;99.90;;;;;;5005233;28;20187;-65
2023/02/15 10:31:28;;;;;;;9.87;8.27;;;10.60;99.90;;;;;;5051887;28;20584;-65
2023/02/15 10:34:05;;;;;;;9.23;8.00;;;10.90;99.90;;;;;;5052104;28;20182;-65
2023/02/15 10:36:39;;;;;;;9.23;8.33;;;11.10;99.90;;;;;;5052028;28;20241;-65
2023/02/15 10:39:34;;;;;;;9.10;8.20;;;11.20;99.90;;;;;;5051401;28;20174;-65
2023/02/15 10:42:26;;;;;;;9.53;7.50;;;11.50;99.90;;;;;;5051844;28;20234;-65
2023/02/15 10:45:02;;;;;;;11.60;7.97;;;11.70;99.90;;;;;;5050505;28;20591;-65
2023/02/15 10:47:46;;;;;;;8.90;8.10;;;11.80;99.90;;;;;;5051968;28;20186;-65
2023/02/15 10:50:17;;;;;;;11.70;8.30;;;12.10;99.90;;;;;;5051943;28;20175;-65
2023/02/15 10:53:05;;;;;;;9.70;8.70;;;12.30;99.90;;;;;;5051960;28;20179;-65
2023/02/15 10:55:39;;;;;;;8.87;7.87;;;12.50;99.90;;;;;;5051869;28;20204;-65
2023/02/15 10:58:10;;;;;;;11.37;8.17;;;12.60;99.90;;;;;;5051821;28;20209;-65
2023/02/15 11:00:39;;;;;;;8.50;7.70;;;12.70;99.90;;;;;;5051113;28;20183;-64
2023/02/15 11:03:23;;;;;;;9.17;8.27;;;12.70;99.90;;;;;;5051756;28;20210;-64
2023/02/15 11:06:12;;;;;;;9.27;8.00;;;12.80;99.90;;;;;;5051836;28;20197;-64
2023/02/15 11:09:04;;;;;;;9.13;8.23;;;12.50;99.90;;;;;;5051730;28;20186;-64
2023/02/15 11:11:36;;;;;;;12.80;8.97;;;12.40;99.90;;;;;;5043289;28;20556;-64
2023/02/15 11:14:09;;;;;;;8.80;7.20;;;12.60;99.90;;;;;;5051491;28;20217;-64
2023/02/15 11:16:40;;;;;;;9.13;8.23;;;12.90;99.90;;;;;;5051497;28;20194;-65
2023/02/15 11:19:21;;;;;;;9.87;8.70;;;13.30;99.90;;;;;;5051171;28;20664;-64
2023/02/15 11:21:50;;;;;;;10.63;7.90;;;13.50;99.90;;;;;;5051180;28;20209;-64
2023/02/15 11:24:20;;;;;;;9.53;8.60;;;13.60;99.90;;;;;;5051168;28;20167;-64
2023/02/15 11:27:03;;;;;;;8.17;7.47;;;13.30;99.90;;;;;;5051506;28;20167;-64
2023/02/15 11:29:40;;;;;;;8.40;7.60;;;13.20;99.90;;;;;;5051150;28;20171;-65
2023/02/15 11:32:23;;;;;;;8.00;7.23;;;13.00;99.90;;;;;;5051307;28;20182;-64
2023/02/15 11:35:10;;;;;;;8.37;7.60;;;13.10;99.90;;;;;;5051220;28;20240;-64
2023/02/15 11:37:38;;;;;;;9.37;8.57;;;13.20;99.90;;;;;;5051333;28;20202;-64
2023/02/15 11:40:18;;;;;;;8.43;7.60;;;13.20;99.90;;;;;;5051028;28;20556;-65
2023/02/15 11:42:46;;;;;;;12.67;8.53;;;13.30;99.90;;;;;;5051011;28;20198;-64
2023/02/15 11:45:34;;;;;;;9.37;8.47;;;13.40;99.90;;;;;;5051102;28;20259;-64
2023/02/15 11:48:00;;;;;;;9.50;7.70;;;13.60;99.90;;;;;;5051139;28;20285;-64
2023/02/15 11:50:32;;;;;;;10.37;7.73;;;13.70;99.90;;;;;;5051266;28;20696;-65
2023/02/15 11:53:21;;;;;;;14.23;8.73;;;14.00;99.90;;;;;;5055061;28;20170;-65
2023/02/15 11:55:48;;;;;;;7.73;6.93;;;14.30;99.90;;;;;;5054990;28;20240;-64
2023/02/15 11:58:42;;;;;;;12.80;8.53;;;14.30;99.90;;;;;;5054934;28;20231;-64
2023/02/15 12:01:18;;;;;;;8.50;6.90;;;14.40;99.90;;;;;;5053658;28;20202;-64
2023/02/15 12:03:58;;;;;;;9.00;7.83;;;14.50;99.90;;;;;;5054645;28;20217;-64
2023/02/15 12:06:28;;;;;;;9.23;7.77;;;14.40;99.90;;;;;;5054982;28;20576;-64
2023/02/15 12:09:20;;;;;;;9.43;7.67;;;14.40;99.90;;;;;;5055034;28;20175;-64
2023/02/15 12:11:46;;;;;;;8.57;7.47;;;14.70;99.90;;;;;;5054614;28;20195;-64
2023/02/15 12:14:16;;;;;;;8.60;7.47;;;14.80;99.90;;;;;;5054506;28;20198;-64
2023/02/15 12:16:53;;;;;;;8.60;7.70;;;14.90;99.90;;;;;;5054663;28;20201;-64
2023/02/15 12:19:22;;;;;;;10.40;7.43;;;15.10;99.90;;;;;;5054378;28;20174;-64
2023/02/15 12:21:52;;;;;;;12.73;8.57;;;15.10;99.90;;;;;;5054177;28;20182;-64
2023/02/15 12:24:31;;;;;;;9.07;8.07;;;15.20;99.90;;;;;;5054516;28;20229;-64
2023/02/15 12:27:13;;;;;;;9.50;8.00;;;15.30;99.90;;;;;;5054338;28;20171;-65
2023/02/15 12:29:49;;;;;;;8.67;7.77;;;15.30;99.90;;;;;;5053915;28;20640;-64
2023/02/15 12:32:23;;;;;;;9.43;7.97;;;15.20;99.90;;;;;;5054246;28;20182;-64
2023/02/15 12:34:51;;;;;;;8.53;7.27;;;15.40;99.90;;;;;;5054052;28;20276;-64
2023/02/15 12:37:21;;;;;;;9.10;7.23;;;15.50;99.90;;;;;;5054248;28;20610;-64
2023/02/15 12:39:56;;;;;;;10.27;7.93;;;15.50;99.90;;;;;;5054256;28;20656;-64
2023/02/15 12:42:23;;;;;;;10.13;8.20;;;15.60;99.90;;;;;;5053964;28;20283;-64
2023/02/15 12:44:58;;;;;;;8.13;7.30;;;15.70;99.90;;;;;;5053629;28;20190;-65
2023/02/15 12:47:26;;;;;;;9.90;8.07;;;16.00;99.90;;;;;;5054009;28;20182;-65
2023/02/15 12:50:19;;;;;;;12.10;7.63;;;16.10;99.90;;;;;;5053580;28;20246;-65
2023/02/15 12:52:51;;;;;;;9.50;8.10;;;16.00;99.90;;;;;;5053836;28;20174;-64
2023/02/15 12:55:30;;;;;;;11.00;7.90;;;16.20;99.90;;;;;;5053899;28;20281;-64
2023/02/15 12:58:30;;;;;;;12.27;8.20;;;16.30;99.90;;;;;;5053693;28;20198;-65
2023/02/15 13:01:16;;;;;;;9.03;8.13;;;16.20;99.90;;;;;;5041398;28;20672;-64
2023/02/15 13:04:04;;;;;;;9.20;7.60;;;16.20;99.90;;;;;;5053534;28;20217;-64
2023/02/15 13:06:33;;;;;;;11.60;8.00;;;16.10;99.90;;;;;;5053480;28;20195;-64
2023/02/15 13:09:14;;;;;;;8.43;7.60;;;16.00;99.90;;;;;;5053459;28;20175;-65
2023/02/15 13:11:42;;;;;;;10.47;7.80;;;15.90;99.90;;;;;;5053429;28;20621;-64
2023/02/15 13:14:18;;;;;;;8.43;7.47;;;16.00;99.90;;;;;;5053437;28;20221;-64
2023/02/15 13:16:46;;;;;;;8.57;7.73;;;16.10;99.90;;;;;;5053435;28;20178;-65
2023/02/15 13:19:25;;;;;;;10.23;8.20;;;16.20;99.90;;;;;;5053249;28;20710;-64
2023/02/15 13:21:53;;;;;;;8.17;7.00;;;16.40;99.90;;;;;;5053103;28;20304;-65
2023/02/15 13:24:40;;;;;;;10.87;8.33;;;16.70;99.90;;;;;;5053081;28;20163;-64
2023/02/15 13:27:16;;;;;;;9.67;7.43;;;16.80;99.90;;;;;;5053272;28;20679;-64
2023/02/15 13:29:49;;;;;;;11.00;8.07;;;16.90;99.90;;;;;;5052901;28;20640;-64